Time;durP1;ratioP1;P1;durP2;ratioP2;P2;SDS_P1;SDS_P2;PMS_P1;PMS_P2;Temp;Humidity;BMP_temperature;BMP_pressure;BME280_temperature;BME280_humidity;BME280_pressure;Samples;Min_cycle;Max_cycle;Signal;HPM_P1;HPM_P2
2021/10/15 00:01:48;;;;;;;44.25;20.92;;;;;;;6.86;66.99;102092.78;1659341;85;26824;-64
2021/10/15 00:04:15;;;;;;;36.88;19.77;;;;;;;6.84;67.18;102089.35;1657693;85;25932;-64
2021/10/15 00:06:42;;;;;;;32.00;20.02;;;;;;;6.82;67.13;102084.55;1663296;85;25777;-64
2021/10/15 00:09:09;;;;;;;35.17;19.50;;;;;;;6.78;67.09;102084.30;1654844;84;25954;-64
2021/10/15 00:11:37;;;;;;;34.48;20.20;;;;;;;6.75;67.03;102089.83;1658781;84;25740;-64
2021/10/15 00:14:04;;;;;;;34.18;19.27;;;;;;;6.74;67.06;102085.41;1652521;85;27530;-64
2021/10/15 00:16:31;;;;;;;38.08;21.25;;;;;;;6.74;67.22;102082.74;1657356;85;25743;-64
2021/10/15 00:18:58;;;;;;;36.08;21.27;;;;;;;6.74;67.28;102084.93;1655333;85;25862;-64
2021/10/15 00:21:24;;;;;;;41.42;20.30;;;;;;;6.76;67.23;102075.97;1659301;85;25850;-64
2021/10/15 00:23:51;;;;;;;39.25;21.65;;;;;;;6.77;67.21;102071.86;1663144;85;27304;-64
2021/10/15 00:26:18;;;;;;;40.90;21.87;;;;;;;6.74;67.04;102067.55;1669351;85;27586;-64
2021/10/15 00:28:45;;;;;;;37.15;21.62;;;;;;;6.72;66.95;102065.41;1670320;85;25786;-64
2021/10/15 00:31:12;;;;;;;44.73;21.68;;;;;;;6.69;66.76;102064.71;1670459;83;25910;-63
2021/10/15 00:33:39;;;;;;;37.95;20.20;;;;;;;6.64;66.83;102063.61;1671467;84;26672;-64
2021/10/15 00:36:06;;;;;;;33.30;21.42;;;;;;;6.61;66.72;102064.24;1670687;84;25791;-64
2021/10/15 00:38:33;;;;;;;42.27;21.30;;;;;;;6.58;66.52;102071.50;1652065;86;27421;-64
2021/10/15 00:41:00;;;;;;;41.75;21.62;;;;;;;6.51;66.49;102069.20;1664533;85;25889;-64
2021/10/15 00:43:27;;;;;;;36.53;21.62;;;;;;;6.47;66.45;102071.17;1674300;83;25969;-64
2021/10/15 00:45:53;;;;;;;41.35;23.52;;;;;;;6.39;66.41;102064.87;1666476;84;26468;-64
2021/10/15 00:48:20;;;;;;;41.13;21.73;;;;;;;6.32;66.53;102067.45;1718380;82;25788;-64
2021/10/15 00:50:49;;;;;;;39.40;21.62;;;;;;;6.26;66.43;102067.29;1713428;82;27476;-64
2021/10/15 00:53:16;;;;;;;37.13;22.15;;;;;;;6.20;66.44;102068.94;1701736;82;25838;-63
2021/10/15 00:55:44;;;;;;;33.98;21.45;;;;;;;6.13;66.51;102067.97;1670093;84;26693;-63
2021/10/15 00:58:11;;;;;;;38.70;21.27;;;;;;;6.06;66.58;102062.94;1666766;85;26374;-64
2021/10/15 01:00:38;;;;;;;44.13;22.87;;;;;;;5.99;66.81;102066.85;1666004;84;27249;-64
2021/10/15 01:03:05;;;;;;;39.48;21.30;;;;;;;5.92;66.74;102073.38;1673482;83;27500;-64
2021/10/15 01:05:32;;;;;;;39.10;22.52;;;;;;;5.84;66.79;102071.09;1666547;85;25834;-63
2021/10/15 01:08:00;;;;;;;39.73;22.30;;;;;;;5.76;66.82;102069.26;1666612;85;25852;-64
2021/10/15 01:10:27;;;;;;;42.80;22.73;;;;;;;5.70;67.04;102074.41;1707060;82;26502;-64
2021/10/15 01:12:56;;;;;;;35.45;20.60;;;;;;;5.66;67.13;102068.80;1696240;82;25861;-64
2021/10/15 01:15:24;;;;;;;38.98;20.50;;;;;;;5.64;67.29;102053.36;1673038;85;27442;-64
2021/10/15 01:17:51;;;;;;;40.23;19.70;;;;;;;5.61;67.66;102054.34;1652682;85;26574;-63
2021/10/15 01:20:18;;;;;;;41.75;20.50;;;;;;;5.59;67.78;102057.58;1668317;84;25871;-64
2021/10/15 01:22:45;;;;;;;38.25;19.65;;;;;;;5.60;67.92;102059.28;1674461;84;25882;-64
2021/10/15 01:25:11;;;;;;;41.13;18.80;;;;;;;5.57;68.07;102067.45;1679232;85;26505;-63
2021/10/15 01:27:38;;;;;;;40.67;20.90;;;;;;;5.56;68.28;102065.72;1670386;85;27439;-63
2021/10/15 01:30:07;;;;;;;35.90;19.23;;;;;;;5.58;68.43;102064.30;1667097;85;25836;-63
2021/10/15 01:32:34;;;;;;;35.40;18.95;;;;;;;5.60;68.50;102071.30;1670157;84;25804;-64
2021/10/15 01:35:01;;;;;;;42.27;19.45;;;;;;;5.64;68.63;102056.87;1668907;85;25821;-65
2021/10/15 01:37:28;;;;;;;32.65;18.32;;;;;;;5.67;68.48;102053.67;1667551;85;26320;-64
2021/10/15 01:39:56;;;;;;;42.20;18.75;;;;;;;5.64;68.54;102054.20;1701327;82;27499;-64
2021/10/15 01:45:09;;;;;;;41.28;18.20;;;;;;;5.68;68.63;102055.41;1669528;84;25826;-63
2021/10/15 01:47:36;;;;;;;30.62;18.02;;;;;;;5.72;68.63;102058.31;1669316;84;27876;-63
2021/10/15 01:50:04;;;;;;;35.45;18.23;;;;;;;5.78;68.73;102056.22;1668852;84;26549;-63
2021/10/15 01:52:31;;;;;;;39.60;18.07;;;;;;;5.79;68.37;102054.41;1671716;84;28170;-63
2021/10/15 01:54:58;;;;;;;33.67;18.40;;;;;;;5.79;68.20;102045.05;1671047;85;25837;-63
2021/10/15 01:57:26;;;;;;;35.98;20.75;;;;;;;5.77;68.12;102045.14;1698229;83;25738;-64
2021/10/15 01:59:52;;;;;;;36.10;18.73;;;;;;;5.77;67.94;102043.80;1696382;82;25837;-64
2021/10/15 02:02:19;;;;;;;39.40;20.20;;;;;;;5.75;67.75;102048.83;1701175;82;26494;-65
2021/10/15 02:04:46;;;;;;;36.50;20.72;;;;;;;5.71;67.65;102044.11;1699802;82;27676;-65
2021/10/15 02:07:13;;;;;;;33.00;19.10;;;;;;;5.66;67.44;102042.59;1673564;85;25928;-65
2021/10/15 02:09:40;;;;;;;37.03;20.08;;;;;;;5.61;67.35;102048.15;1662161;84;25841;-65
2021/10/15 02:12:07;;;;;;;36.70;20.43;;;;;;;5.52;67.28;102053.44;1670556;84;26518;-66
2021/10/15 02:14:34;;;;;;;36.63;21.15;;;;;;;5.46;67.32;102055.06;1667776;85;25805;-64
2021/10/15 02:17:01;;;;;;;39.27;21.12;;;;;;;5.35;67.12;102058.69;1670898;84;27843;-65
2021/10/15 02:19:28;;;;;;;38.63;20.00;;;;;;;5.21;67.11;102053.53;1737411;81;25446;-64
2021/10/15 02:21:55;;;;;;;41.05;21.85;;;;;;;5.14;67.16;102061.42;1690532;84;25757;-64
2021/10/15 02:24:22;;;;;;;37.15;21.12;;;;;;;5.01;67.31;102061.11;1688746;82;25819;-65
2021/10/15 02:26:50;;;;;;;39.53;21.40;;;;;;;4.91;67.46;102055.30;1672119;83;25782;-65
2021/10/15 02:29:17;;;;;;;31.93;20.57;;;;;;;4.86;67.55;102061.31;1685788;84;28320;-65
2021/10/15 02:31:45;;;;;;;32.90;20.72;;;;;;;4.78;67.65;102060.79;1685100;84;25783;-66
2021/10/15 02:34:14;;;;;;;37.60;19.27;;;;;;;4.71;67.60;102061.51;1683090;84;25772;-65
2021/10/15 02:36:41;;;;;;;42.03;21.20;;;;;;;4.66;67.47;102070.19;1683382;84;25804;-65
2021/10/15 02:39:08;;;;;;;41.80;19.92;;;;;;;4.60;67.54;102064.64;1672535;85;25700;-65
2021/10/15 02:41:37;;;;;;;39.58;21.05;;;;;;;4.52;67.67;102065.44;1656459;83;28171;-65
2021/10/15 02:44:07;;;;;;;38.02;19.67;;;;;;;4.49;67.68;102070.89;1667811;84;25648;-66
2021/10/15 02:46:35;;;;;;;39.05;20.23;;;;;;;4.48;68.23;102075.33;1647271;85;25775;-64
2021/10/15 02:49:03;;;;;;;38.45;19.02;;;;;;;4.46;68.65;102071.89;1664893;85;26623;-65
2021/10/15 02:51:31;;;;;;;36.77;19.05;;;;;;;4.45;68.91;102070.16;1654934;85;25858;-65
2021/10/15 02:54:02;;;;;;;32.45;17.77;;;;;;;4.38;68.64;102066.88;1670952;85;27531;-65
2021/10/15 02:56:29;;;;;;;31.05;17.35;;;;;;;4.35;68.86;102077.65;1702010;82;26335;-65
2021/10/15 02:58:57;;;;;;;34.00;19.27;;;;;;;4.36;69.06;102069.20;1673795;84;25754;-65
2021/10/15 03:01:24;;;;;;;36.50;18.15;;;;;;;4.37;69.09;102066.47;1671487;84;25793;-66
2021/10/15 03:03:52;;;;;;;40.35;17.85;;;;;;;4.42;69.47;102065.42;1668152;83;26003;-66
2021/10/15 03:06:19;;;;;;;41.05;17.98;;;;;;;4.44;69.39;102064.42;1700983;83;28185;-65
2021/10/15 03:08:46;;;;;;;34.83;19.00;;;;;;;4.43;69.37;102058.69;1702059;83;25746;-66
2021/10/15 03:11:13;;;;;;;31.00;17.62;;;;;;;4.44;69.33;102059.09;1671366;85;25905;-65
2021/10/15 03:13:40;;;;;;;34.73;18.90;;;;;;;4.47;69.38;102070.08;1651326;85;25755;-64
2021/10/15 03:16:07;;;;;;;34.00;17.32;;;;;;;4.46;69.13;102062.56;1670017;85;25770;-64
2021/10/15 03:18:34;;;;;;;34.27;17.80;;;;;;;4.48;69.29;102065.16;1669225;83;27519;-65
2021/10/15 03:21:01;;;;;;;33.65;18.12;;;;;;;4.49;69.49;102057.56;1671595;85;26060;-64
2021/10/15 03:23:29;;;;;;;33.88;18.48;;;;;;;4.51;69.34;102068.55;1670385;85;25776;-64
2021/10/15 03:25:57;;;;;;;26.30;17.02;;;;;;;4.54;69.27;102067.11;1662416;85;25802;-65
2021/10/15 03:28:24;;;;;;;36.08;17.98;;;;;;;4.57;69.14;102063.44;1659232;85;25850;-65
2021/10/15 03:30:51;;;;;;;34.18;16.85;;;;;;;4.58;69.00;102065.17;1668376;84;27444;-64
2021/10/15 03:33:18;;;;;;;37.45;17.80;;;;;;;4.58;68.96;102070.50;1663993;85;25724;-63
2021/10/15 03:35:45;;;;;;;35.00;18.20;;;;;;;4.61;68.91;102072.16;1665652;85;25740;-64
2021/10/15 03:38:11;;;;;;;30.85;18.65;;;;;;;4.60;68.75;102068.64;1641618;86;25809;-66
2021/10/15 03:40:39;;;;;;;31.02;19.37;;;;;;;4.60;68.61;102067.77;1640780;86;25964;-65
2021/10/15 03:43:06;;;;;;;34.75;19.75;;;;;;;4.57;68.54;102065.25;1641059;85;28185;-65
2021/10/15 03:45:33;;;;;;;33.35;19.02;;;;;;;4.54;68.38;102064.89;1643341;85;25800;-64
2021/10/15 03:48:00;;;;;;;38.35;18.75;;;;;;;4.46;68.14;102067.89;1637000;86;25763;-64
2021/10/15 03:50:27;;;;;;;36.77;21.07;;;;;;;4.42;68.28;102062.76;1641573;86;25789;-65
2021/10/15 03:52:54;;;;;;;38.38;20.05;;;;;;;4.39;68.29;102061.95;1638870;86;26271;-65
2021/10/15 03:55:21;;;;;;;35.10;20.37;;;;;;;4.38;68.13;102061.55;1636060;86;28288;-64
2021/10/15 03:57:48;;;;;;;31.25;19.60;;;;;;;4.35;68.00;102060.33;1640285;86;25795;-64
2021/10/15 04:00:15;;;;;;;38.88;20.60;;;;;;;4.32;67.97;102064.48;1636548;86;25744;-63
2021/10/15 04:02:45;;;;;;;36.25;20.57;;;;;;;4.30;68.01;102074.80;1642028;85;25849;-63
2021/10/15 04:05:14;;;;;;;39.08;22.62;;;;;;;4.24;67.88;102069.25;1644051;86;26050;-64
2021/10/15 04:07:43;;;;;;;42.88;21.65;;;;;;;4.15;67.89;102064.30;1640753;85;27514;-64
2021/10/15 04:10:11;;;;;;;38.90;20.10;;;;;;;4.08;68.00;102064.53;1619509;87;25949;-64
2021/10/15 04:12:39;;;;;;;33.85;20.52;;;;;;;4.05;68.18;102062.46;1663663;85;25807;-64
2021/10/15 04:15:08;;;;;;;46.20;21.42;;;;;;;4.02;68.33;102063.45;1650424;85;25810;-64
2021/10/15 04:17:35;;;;;;;43.05;21.45;;;;;;;4.00;68.18;102057.80;1638898;86;25879;-64
2021/10/15 04:20:04;;;;;;;34.15;20.17;;;;;;;3.95;68.34;102053.98;1642275;86;27521;-64
2021/10/15 04:22:31;;;;;;;44.13;22.75;;;;;;;3.93;68.71;102054.51;1638741;87;25809;-64
2021/10/15 04:24:58;;;;;;;39.70;22.32;;;;;;;3.90;68.60;102058.61;1680726;82;25787;-64
2021/10/15 04:27:25;;;;;;;44.35;20.43;;;;;;;3.87;68.63;102062.75;1701911;83;25842;-65
2021/10/15 04:29:52;;;;;;;37.35;20.02;;;;;;;3.89;68.94;102068.41;1705896;82;26249;-64
2021/10/15 04:32:19;;;;;;;40.17;19.62;;;;;;;3.92;69.02;102070.08;1702702;83;27483;-64
2021/10/15 04:34:46;;;;;;;41.95;19.02;;;;;;;3.95;69.16;102071.30;1685939;83;25877;-64
2021/10/15 04:37:14;;;;;;;39.98;19.98;;;;;;;3.98;69.25;102080.50;1702080;83;25737;-64
2021/10/15 04:39:41;;;;;;;42.27;18.90;;;;;;;3.98;69.92;102082.28;1668207;84;25804;-64
2021/10/15 04:42:07;;;;;;;34.60;19.20;;;;;;;3.98;69.76;102087.61;1669284;84;25804;-64
2021/10/15 04:44:34;;;;;;;33.08;20.15;;;;;;;4.02;70.05;102083.91;1670746;85;27948;-65
2021/10/15 04:47:01;;;;;;;34.03;20.27;;;;;;;4.10;70.12;102087.58;1651778;85;26669;-65
2021/10/15 04:49:28;;;;;;;36.70;18.98;;;;;;;4.15;70.21;102086.95;1668802;85;25837;-65
2021/10/15 04:51:55;;;;;;;34.20;17.82;;;;;;;4.22;70.23;102091.94;1669612;84;25873;-63
2021/10/15 04:54:24;;;;;;;39.98;18.10;;;;;;;4.30;70.31;102085.45;1671478;84;25726;-63
2021/10/15 04:56:51;;;;;;;33.92;18.32;;;;;;;4.37;70.25;102092.26;1668723;84;27449;-63
2021/10/15 04:59:17;;;;;;;40.88;18.37;;;;;;;4.44;70.12;102090.22;1652122;85;25942;-64
2021/10/15 05:01:45;;;;;;;29.05;18.07;;;;;;;4.51;70.19;102086.36;1670034;85;25645;-64
2021/10/15 05:04:13;;;;;;;35.05;18.25;;;;;;;4.57;70.06;102085.23;1670931;83;26485;-64
2021/10/15 05:06:42;;;;;;;36.25;17.05;;;;;;;4.63;70.01;102077.82;1672052;85;25808;-64
2021/10/15 05:11:45;;;;;;;41.33;19.10;;;;;;;4.74;69.73;102074.72;1669741;85;25900;-64
2021/10/15 05:14:14;;;;;;;51.63;20.95;;;;;;;4.82;69.80;102079.25;1668103;85;26095;-64
2021/10/15 05:16:40;;;;;;;39.60;19.10;;;;;;;4.92;69.85;102082.37;1667605;85;26360;-64
2021/10/15 05:19:08;;;;;;;39.58;20.85;;;;;;;4.99;69.68;102082.97;1669430;85;25733;-64
2021/10/15 05:21:35;;;;;;;48.30;23.98;;;;;;;5.04;69.41;102084.95;1668918;85;27158;-64
2021/10/15 05:24:01;;;;;;;54.48;25.85;;;;;;;5.06;69.18;102093.77;1688134;83;25925;-63
2021/10/15 05:26:28;;;;;;;55.73;26.95;;;;;;;5.10;69.18;102090.04;1679714;84;25802;-64
2021/10/15 05:28:55;;;;;;;47.73;22.45;;;;;;;5.15;69.13;102088.02;1704881;83;25971;-65
2021/10/15 05:31:22;;;;;;;49.25;26.60;;;;;;;5.18;68.94;102089.67;1659664;84;26020;-65
2021/10/15 05:33:49;;;;;;;59.03;25.43;;;;;;;5.22;68.82;102094.41;1652908;84;28322;-62
2021/10/15 05:36:16;;;;;;;54.65;26.07;;;;;;;5.24;68.76;102094.77;1656172;84;25793;-63
2021/10/15 05:38:43;;;;;;;48.63;23.00;;;;;;;5.27;68.67;102094.60;1652760;84;25826;-63
2021/10/15 05:41:10;;;;;;;41.28;21.37;;;;;;;5.31;68.67;102096.66;1660603;84;25848;-63
2021/10/15 05:43:37;;;;;;;38.38;21.25;;;;;;;5.33;68.56;102096.98;1635412;84;25829;-63
2021/10/15 05:46:04;;;;;;;42.83;20.80;;;;;;;5.38;68.39;102098.59;1646425;85;28269;-63
2021/10/15 05:48:30;;;;;;;39.95;21.60;;;;;;;5.40;68.62;102092.24;1656257;84;25884;-63
2021/10/15 05:50:58;;;;;;;45.85;20.75;;;;;;;5.40;68.46;102090.05;1660933;84;26031;-65
2021/10/15 05:53:25;;;;;;;45.45;21.15;;;;;;;5.43;68.56;102097.45;1660460;85;26176;-65
2021/10/15 06:01:25;;;;;;;45.95;22.07;;;;;;;5.56;68.61;102094.23;1634858;85;25762;-63
2021/10/15 06:14:54;;;;;;;56.95;26.02;;;;;;;5.90;69.30;102097.49;1660721;85;25843;-65
2021/10/15 06:17:20;;;;;;;53.02;25.27;;;;;;;5.98;69.40;102090.46;1645409;85;26446;-65
2021/10/15 06:19:53;;;;;;;37.23;21.40;;;;;;;6.08;69.62;102089.11;1642131;85;25870;-63
2021/10/15 06:22:26;;;;;;;49.73;22.50;;;;;;;6.19;69.58;102087.25;1636729;86;25843;-64
2021/10/15 06:24:55;;;;;;;44.58;22.05;;;;;;;6.27;69.29;102088.22;1690962;82;32488;-64
2021/10/15 06:27:25;;;;;;;44.98;22.58;;;;;;;6.36;69.52;102086.88;1681996;85;25972;-64
2021/10/15 06:29:52;;;;;;;55.78;22.37;;;;;;;6.48;69.54;102082.27;1689458;84;25854;-64
2021/10/15 06:32:23;;;;;;;45.98;22.32;;;;;;;6.59;69.50;102083.05;1676525;85;26402;-63
2021/10/15 06:34:50;;;;;;;65.42;25.08;;;;;;;6.68;69.26;102085.25;1679177;85;25767;-64
2021/10/15 06:37:17;;;;;;;42.65;22.10;;;;;;;6.78;69.16;102084.78;1682484;84;28161;-63
2021/10/15 06:39:44;;;;;;;48.87;23.25;;;;;;;6.87;68.97;102081.14;1691774;84;26548;-64
2021/10/15 06:42:11;;;;;;;57.70;25.55;;;;;;;6.98;68.79;102079.27;1690731;84;25797;-64
2021/10/15 06:44:38;;;;;;;54.40;26.00;;;;;;;7.09;68.49;102085.84;1678941;84;25804;-64
2021/10/15 06:47:05;;;;;;;47.05;25.25;;;;;;;7.17;68.26;102079.15;1683829;84;25709;-64
2021/10/15 06:49:32;;;;;;;63.50;27.73;;;;;;;7.26;67.71;102080.45;1694266;84;27446;-63
2021/10/15 06:51:59;;;;;;;54.05;28.20;;;;;;;7.30;67.28;102074.48;1682226;84;25822;-64
2021/10/15 06:54:26;;;;;;;77.85;29.82;;;;;;;7.41;67.44;102075.23;1674453;85;25749;-65
2021/10/15 06:56:53;;;;;;;62.67;29.18;;;;;;;7.54;67.29;102077.61;1670661;85;26147;-64
2021/10/15 06:59:20;;;;;;;73.80;28.05;;;;;;;7.66;66.70;102083.64;1679641;84;25797;-65
2021/10/15 07:01:46;;;;;;;79.50;30.35;;;;;;;7.75;66.67;102070.69;1675554;83;27481;-64
2021/10/15 07:04:13;;;;;;;86.10;30.45;;;;;;;7.86;66.44;102072.76;1681768;83;25830;-64
2021/10/15 07:06:40;;;;;;;71.45;29.42;;;;;;;7.88;66.37;102061.48;1680585;84;25765;-64
2021/10/15 07:09:07;;;;;;;76.70;29.92;;;;;;;7.92;66.44;102055.02;1678342;84;26448;-64
2021/10/15 07:11:38;;;;;;;66.45;31.23;;;;;;;8.02;66.48;102051.32;1676772;83;25822;-64
2021/10/15 07:14:03;;;;;;;72.00;31.90;;;;;;;8.12;66.47;102053.38;1685221;84;27694;-65
2021/10/15 07:16:30;;;;;;;63.30;32.60;;;;;;;8.22;66.06;102047.48;1681410;84;25858;-64
2021/10/15 07:18:57;;;;;;;71.33;36.13;;;;;;;8.33;65.91;102033.47;1681360;84;26998;-64
2021/10/15 07:21:24;;;;;;;64.80;30.90;;;;;;;8.43;65.53;102034.63;1680648;84;26502;-64
2021/10/15 07:23:52;;;;;;;63.45;29.63;;;;;;;8.55;65.41;102035.28;1685761;84;25809;-64
2021/10/15 07:26:19;;;;;;;58.10;29.42;;;;;;;8.63;64.86;102032.14;1672505;84;29583;-64
2021/10/15 07:28:46;;;;;;;73.50;31.07;;;;;;;8.72;64.76;102035.61;1677250;84;25762;-64
2021/10/15 07:31:13;;;;;;;62.65;28.87;;;;;;;8.83;64.76;102032.77;1681405;84;26534;-64
2021/10/15 07:33:42;;;;;;;67.15;26.75;;;;;;;8.92;64.17;102032.16;1677098;84;26602;-64
2021/10/15 07:36:10;;;;;;;81.45;25.97;;;;;;;9.00;64.00;102029.02;1680837;85;25933;-65
2021/10/15 07:38:37;;;;;;;60.58;23.65;;;;;;;9.14;64.21;102032.19;1676886;84;27475;-64
2021/10/15 07:41:06;;;;;;;53.58;24.30;;;;;;;9.29;63.89;102029.03;1684249;83;25824;-64
2021/10/15 07:43:33;;;;;;;62.43;22.98;;;;;;;9.44;63.97;102029.39;1674424;83;26520;-65
2021/10/15 07:46:01;;;;;;;64.15;23.10;;;;;;;9.58;63.53;102020.94;1688888;84;25945;-64
2021/10/15 07:48:28;;;;;;;57.67;24.12;;;;;;;9.77;63.37;102021.45;1684213;84;25853;-64
2021/10/15 07:50:55;;;;;;;59.80;22.73;;;;;;;9.95;62.84;102022.08;1683873;84;27395;-65
2021/10/15 07:53:22;;;;;;;54.77;23.32;;;;;;;10.15;62.45;102026.13;1675062;84;25974;-65
2021/10/15 07:55:50;;;;;;;54.23;23.45;;;;;;;10.34;62.26;102020.84;1679391;84;25819;-65
2021/10/15 07:58:17;;;;;;;53.28;24.35;;;;;;;10.58;62.01;102018.34;1679512;84;25802;-64
2021/10/15 08:00:43;;;;;;;60.75;21.95;;;;;;;10.78;61.38;102016.96;1664889;85;25838;-65
2021/10/15 08:03:10;;;;;;;51.50;21.23;;;;;;;10.98;60.71;102008.47;1675273;83;27481;-65
2021/10/15 08:05:37;;;;;;;48.83;20.00;;;;;;;11.15;58.93;102011.30;1687522;83;25732;-64
2021/10/15 08:08:04;;;;;;;54.90;22.17;;;;;;;11.19;57.80;102009.63;1678268;84;25869;-64
2021/10/15 08:10:31;;;;;;;40.83;21.02;;;;;;;11.34;57.29;102014.90;1679858;84;25807;-65
2021/10/15 08:13:00;;;;;;;51.13;21.68;;;;;;;11.40;56.76;102009.05;1683163;84;25877;-63
2021/10/15 08:15:27;;;;;;;52.10;21.62;;;;;;;11.50;55.08;102000.68;1685780;83;27493;-65
2021/10/15 08:17:54;;;;;;;55.73;22.27;;;;;;;11.57;55.49;102001.95;1710826;83;25831;-64
2021/10/15 08:20:22;;;;;;;42.50;20.65;;;;;;;11.70;55.51;101992.94;1683881;83;25881;-65
2021/10/15 08:22:52;;;;;;;51.60;20.02;;;;;;;11.87;55.65;101992.57;1686158;83;25765;-65
2021/10/15 08:25:19;;;;;;;37.83;18.62;;;;;;;12.04;55.20;102001.26;1672308;84;25757;-64
2021/10/15 08:27:45;;;;;;;49.30;17.30;;;;;;;12.18;54.87;101992.97;1679973;84;27527;-66
2021/10/15 08:30:12;;;;;;;56.92;18.32;;;;;;;12.32;54.39;101997.31;1678682;84;25790;-65
2021/10/15 08:32:39;;;;;;;55.80;19.00;;;;;;;12.46;54.27;101992.20;1685754;84;25805;-65
2021/10/15 08:35:10;;;;;;;43.30;17.92;;;;;;;12.63;54.24;101991.38;1673084;84;26546;-65
2021/10/15 08:37:37;;;;;;;49.77;17.37;;;;;;;12.78;51.40;101983.41;1670547;84;25812;-65
2021/10/15 08:40:07;;;;;;;37.80;16.40;;;;;;;12.86;52.71;101987.38;1670180;84;28166;-64
2021/10/15 08:42:36;;;;;;;34.45;16.37;;;;;;;12.96;52.60;101989.22;1672594;83;25815;-64
2021/10/15 08:45:06;;;;;;;29.15;16.10;;;;;;;13.06;52.55;101992.53;1685273;84;25761;-64
2021/10/15 08:47:33;;;;;;;38.78;20.40;;;;;;;13.17;52.15;101997.07;1688019;84;26506;-64
2021/10/15 08:50:00;;;;;;;46.02;21.17;;;;;;;13.23;51.70;102000.62;1689200;84;25879;-64
2021/10/15 08:52:27;;;;;;;36.10;19.55;;;;;;;13.33;51.97;101991.30;1689333;84;28156;-63
2021/10/15 08:54:53;;;;;;;29.07;16.75;;;;;;;13.41;51.51;101988.86;1688785;84;26051;-63
2021/10/15 08:57:20;;;;;;;28.50;15.48;;;;;;;13.50;51.13;101985.87;1685543;84;25743;-65
2021/10/15 08:59:50;;;;;;;32.28;16.20;;;;;;;13.58;50.46;101992.90;1673867;85;25783;-65
2021/10/15 09:02:21;;;;;;;35.52;16.10;;;;;;;13.63;49.73;101985.25;1684072;83;25793;-65
2021/10/15 09:04:53;;;;;;;36.38;16.82;;;;;;;13.69;48.98;101986.09;1641196;84;27357;-65
2021/10/15 09:07:22;;;;;;;35.63;15.48;;;;;;;13.81;48.94;101982.85;1673442;84;26620;-65
2021/10/15 09:10:08;;;;;;;31.97;16.75;;;;;;;13.99;49.01;101976.41;1695985;84;25827;-64
2021/10/15 09:12:48;;;;;;;32.33;14.38;;;;;;;14.21;48.59;101978.16;1694299;84;25966;-64
2021/10/15 09:15:16;;;;;;;31.82;13.50;;;;;;;14.45;47.56;101970.78;1694142;83;27333;-64
2021/10/15 09:17:52;;;;;;;29.82;13.05;;;;;;;14.66;47.59;101966.22;1680892;84;27467;-64
2021/10/15 09:20:34;;;;;;;26.40;11.05;;;;;;;14.89;46.97;101962.48;1674172;84;26024;-64
2021/10/15 09:23:02;;;;;;;18.02;9.93;;;;;;;15.14;44.86;101966.59;1673832;85;25803;-64
2021/10/15 09:25:37;;;;;;;21.90;9.45;;;;;;;15.50;45.51;101956.13;1673573;85;25797;-65
2021/10/15 09:28:21;;;;;;;19.52;9.90;;;;;;;16.06;41.93;101954.63;1678003;84;43987;-65
2021/10/15 09:30:51;;;;;;;18.35;9.40;;;;;;;16.24;40.33;101956.62;1710008;83;27464;-64
2021/10/15 09:33:20;;;;;;;30.32;9.95;;;;;;;16.24;41.82;101960.21;1706299;83;25740;-65
2021/10/15 09:35:47;;;;;;;18.70;9.33;;;;;;;16.21;41.01;101961.00;1705011;84;25761;-65
2021/10/15 09:38:14;;;;;;;18.17;8.45;;;;;;;16.23;41.85;101961.20;1680282;84;26973;-65
2021/10/15 09:40:45;;;;;;;21.65;8.58;;;;;;;16.27;41.88;101950.39;1670013;84;25807;-66
2021/10/15 09:43:14;;;;;;;17.98;8.95;;;;;;;16.30;41.31;101947.05;1703647;83;28339;-66
2021/10/15 09:45:48;;;;;;;24.90;7.95;;;;;;;16.27;41.04;101947.68;1701279;84;25868;-65
2021/10/15 09:48:26;;;;;;;18.45;8.20;;;;;;;16.18;40.15;101943.63;1690352;84;26468;-64
2021/10/15 09:51:19;;;;;;;20.80;8.05;;;;;;;16.06;40.00;101943.78;1673660;85;25814;-64
2021/10/15 09:54:08;;;;;;;11.47;8.07;;;;;;;15.86;40.73;101942.93;1674104;84;25887;-64
2021/10/15 09:56:45;;;;;;;24.95;8.25;;;;;;;15.86;40.73;101942.93;1674035;84;27507;-64
2021/10/15 09:59:12;;;;;;;20.48;8.38;;;;;;;15.79;39.54;101942.60;1687120;84;25811;-64
2021/10/15 10:01:41;;;;;;;19.02;8.10;;;;;;;15.73;39.37;101941.82;1665831;85;26003;-64
2021/10/15 10:04:11;;;;;;;16.37;7.20;;;;;;;15.75;39.77;101933.53;1676560;83;26960;-64
2021/10/15 10:06:39;;;;;;;13.75;7.17;;;;;;;15.81;39.58;101934.34;1665692;84;26220;-68
2021/10/15 10:09:21;;;;;;;12.07;7.28;;;;;;;15.94;39.21;101924.08;1684879;84;28262;-67
2021/10/15 10:12:25;;;;;;;17.55;7.37;;;;;;;16.12;39.78;101927.42;1668189;84;25961;-70
2021/10/15 10:14:52;;;;;;;10.13;6.87;;;;;;;16.40;39.94;101924.32;1667043;85;25794;-65
2021/10/15 10:19:48;;;;;;;18.20;6.85;;;;;;;17.11;38.46;101919.86;1863586;75;25664;-64
2021/10/15 10:22:19;;;;;;;12.73;5.97;;;;;;;17.68;37.65;101904.66;1835082;77;25829;-66
2021/10/15 10:24:51;;;;;;;13.75;6.28;;;;;;;18.41;37.63;101918.56;1834507;77;27531;-65
2021/10/15 10:27:31;;;;;;;18.23;6.67;;;;;;;18.72;36.45;101922.66;1832070;76;25780;-66
2021/10/15 10:29:58;;;;;;;14.83;6.92;;;;;;;18.69;34.93;101913.43;1837174;77;25904;-66
2021/10/15 10:32:28;;;;;;;13.22;7.03;;;;;;;18.42;34.61;101919.41;1825576;77;25795;-66
2021/10/15 10:34:59;;;;;;;13.08;6.80;;;;;;;18.26;35.10;101922.37;1831885;77;26503;-65
2021/10/15 10:37:26;;;;;;;8.83;6.17;;;;;;;18.20;34.34;101918.05;1812528;77;27463;-65
2021/10/15 10:40:08;;;;;;;19.45;7.90;;;;;;;18.13;34.87;101913.25;1784413;80;25850;-65
2021/10/15 10:42:56;;;;;;;16.95;6.62;;;;;;;18.10;34.98;101910.83;1795127;79;25789;-66
2021/10/15 10:45:23;;;;;;;17.67;6.85;;;;;;;18.02;34.35;101905.33;1782707;80;27236;-65
2021/10/15 10:48:08;;;;;;;18.02;6.60;;;;;;;17.89;34.56;101902.11;1769227;80;25958;-66
2021/10/15 10:50:35;;;;;;;18.30;6.70;;;;;;;17.82;34.90;101892.38;1765497;78;27101;-66
2021/10/15 10:53:08;;;;;;;17.00;6.72;;;;;;;17.75;35.25;101885.33;1755103;79;25939;-66
2021/10/15 10:55:46;;;;;;;8.73;5.78;;;;;;;17.80;35.29;101885.70;1757128;79;25829;-65
2021/10/15 10:58:35;;;;;;;10.25;6.17;;;;;;;17.76;34.14;101877.52;1778498;78;25911;-65
2021/10/15 11:01:25;;;;;;;14.63;6.85;;;;;;;17.63;35.14;101873.84;1772549;79;25975;-66
2021/10/15 11:03:51;;;;;;;16.27;6.58;;;;;;;17.59;35.49;101881.11;1763901;79;27458;-65
2021/10/15 11:06:19;;;;;;;19.32;6.92;;;;;;;17.55;35.38;101879.20;1783264;79;26500;-66
2021/10/15 11:08:46;;;;;;;13.38;7.30;;;;;;;17.57;35.45;101873.59;1783142;79;25854;-65
2021/10/15 11:11:33;;;;;;;16.57;6.87;;;;;;;17.60;34.91;101861.05;1781850;79;25706;-66
2021/10/15 11:13:56;;;;;;;28.15;7.45;;;;;;;17.64;35.04;101862.44;1775792;79;25777;-66
2021/10/15 11:16:30;;;;;;;11.40;6.12;;;;;;;17.74;35.06;101861.01;1780365;79;27932;-67
2021/10/15 11:18:57;;;;;;;8.73;5.50;;;;;;;17.80;34.29;101854.92;1778977;79;25795;-66
2021/10/15 11:21:25;;;;;;;12.55;5.35;;;;;;;17.84;34.13;101857.66;1780327;79;25747;-65
2021/10/15 11:23:53;;;;;;;12.00;5.70;;;;;;;17.96;33.79;101864.61;1778746;79;25792;-64
2021/10/15 11:26:34;;;;;;;15.45;5.80;;;;;;;18.08;33.83;101871.17;1783502;79;25739;-64
2021/10/15 11:29:01;;;;;;;8.05;5.50;;;;;;;18.07;33.11;101877.11;1787349;79;27449;-65
2021/10/15 11:31:28;;;;;;;9.18;5.80;;;;;;;17.97;32.80;101871.77;1776453;79;26490;-64
2021/10/15 11:34:13;;;;;;;14.30;5.25;;;;;;;17.87;32.96;101871.48;1766350;79;25770;-64
2021/10/15 11:36:41;;;;;;;10.60;5.47;;;;;;;17.74;33.03;101861.84;1781707;79;25865;-64
2021/10/15 11:39:08;;;;;;;10.10;5.67;;;;;;;17.49;33.20;101858.91;1774632;80;26144;-64
2021/10/15 11:41:50;;;;;;;10.28;5.47;;;;;;;17.31;32.87;101856.69;1773320;80;29009;-65
2021/10/15 11:44:34;;;;;;;11.35;5.45;;;;;;;17.05;32.92;101853.36;1769068;79;25720;-67
2021/10/15 11:47:03;;;;;;;11.18;5.70;;;;;;;16.84;33.15;101852.23;1774473;80;25749;-65
2021/10/15 11:49:37;;;;;;;12.13;6.00;;;;;;;16.63;33.52;101847.05;1775628;80;26183;-64